Time;durP1;ratioP1;P1;durP2;ratioP2;P2;SDS_P1;SDS_P2;PMS_P1;PMS_P2;Temp;Humidity;BMP_temperature;BMP_pressure;BME280_temperature;BME280_humidity;BME280_pressure;Samples;Min_cycle;Max_cycle;Signal;HPM_P1;HPM_P2
2021/03/15 00:00:14;;;;;;;41.45;20.83;;;6.20;92.50;;;;;;5054175;28;20021;-68
2021/03/15 00:02:40;;;;;;;41.47;21.23;;;6.20;92.50;;;;;;5053216;28;20084;-69
2021/03/15 00:05:08;;;;;;;37.08;18.90;;;6.20;92.40;;;;;;5052354;28;20051;-69
2021/03/15 00:07:34;;;;;;;44.85;23.75;;;6.20;92.40;;;;;;5053283;28;20435;-69
2021/03/15 00:10:00;;;;;;;40.50;20.55;;;6.20;92.40;;;;;;5053536;28;20098;-69
2021/03/15 00:12:27;;;;;;;44.25;21.98;;;6.20;92.40;;;;;;5054671;28;20029;-69
2021/03/15 00:14:52;;;;;;;38.78;19.27;;;6.20;92.40;;;;;;5052731;28;20036;-69
2021/03/15 00:17:18;;;;;;;41.08;18.88;;;6.20;92.30;;;;;;5053699;28;20417;-69
2021/03/15 00:19:44;;;;;;;37.45;19.42;;;6.20;92.10;;;;;;5054134;28;20021;-69
2021/03/15 00:22:10;;;;;;;43.13;20.83;;;6.30;92.10;;;;;;5052332;28;20021;-69
2021/03/15 00:24:36;;;;;;;39.25;20.17;;;6.20;92.00;;;;;;5052680;28;20412;-69
2021/03/15 00:27:01;;;;;;;44.25;23.08;;;6.20;92.10;;;;;;5043862;28;20494;-70
2021/03/15 00:29:27;;;;;;;43.88;23.20;;;6.20;92.10;;;;;;5045598;28;20025;-69
2021/03/15 00:31:53;;;;;;;43.55;22.25;;;6.20;92.10;;;;;;5053568;28;20064;-69
2021/03/15 00:34:18;;;;;;;51.83;23.45;;;6.20;92.00;;;;;;5052263;28;20082;-69
2021/03/15 00:36:44;;;;;;;39.83;19.83;;;6.20;92.10;;;;;;5052328;28;20111;-69
2021/03/15 00:39:12;;;;;;;42.58;21.20;;;6.30;92.10;;;;;;5053370;28;20375;-69
2021/03/15 00:41:37;;;;;;;42.30;20.90;;;6.30;92.00;;;;;;5053623;28;20363;-69
2021/03/15 00:44:03;;;;;;;43.38;22.67;;;6.30;91.90;;;;;;5053345;28;20017;-69
2021/03/15 00:46:29;;;;;;;42.85;21.52;;;6.30;91.90;;;;;;5053549;28;20033;-70
2021/03/15 00:48:55;;;;;;;46.80;23.30;;;6.30;91.90;;;;;;5053189;28;20104;-69
2021/03/15 00:51:21;;;;;;;43.75;22.48;;;6.30;91.90;;;;;;5051758;28;20083;-69
2021/03/15 00:53:46;;;;;;;44.15;22.63;;;6.30;91.90;;;;;;5048221;28;20039;-69
2021/03/15 00:56:12;;;;;;;41.17;20.55;;;6.30;91.80;;;;;;5038469;28;20092;-69
2021/03/15 00:58:38;;;;;;;42.72;21.33;;;6.30;91.80;;;;;;5053501;28;20419;-69
2021/03/15 01:01:04;;;;;;;43.13;22.10;;;6.30;91.80;;;;;;5051640;28;20025;-69
2021/03/15 01:03:30;;;;;;;44.13;22.45;;;6.30;91.90;;;;;;5053095;28;20416;-69
2021/03/15 01:05:57;;;;;;;42.20;21.83;;;6.30;91.80;;;;;;5051328;28;20060;-69
2021/03/15 01:08:23;;;;;;;43.53;22.15;;;6.40;91.70;;;;;;5051376;28;20032;-68
2021/03/15 01:10:49;;;;;;;46.10;23.17;;;6.40;91.50;;;;;;5053133;28;20033;-69
2021/03/15 01:13:15;;;;;;;45.22;24.25;;;6.30;91.50;;;;;;5051472;28;20459;-69
2021/03/15 01:15:42;;;;;;;43.13;22.10;;;6.30;91.50;;;;;;5051707;28;20036;-69
2021/03/15 01:18:08;;;;;;;46.65;22.83;;;6.30;91.50;;;;;;5051757;28;20229;-69
2021/03/15 01:20:35;;;;;;;44.45;22.77;;;6.30;91.60;;;;;;5051475;28;20029;-69
2021/03/15 01:23:01;;;;;;;48.67;24.10;;;6.30;91.60;;;;;;5052386;28;20457;-69
2021/03/15 01:25:31;;;;;;;45.80;23.58;;;6.30;91.50;;;;;;5052707;28;20036;-68
2021/03/15 01:27:57;;;;;;;45.53;23.17;;;6.30;91.50;;;;;;5038767;28;20033;-68
2021/03/15 01:30:26;;;;;;;46.15;24.05;;;6.30;91.50;;;;;;5049029;28;20024;-68
2021/03/15 01:32:51;;;;;;;44.17;23.60;;;6.30;91.40;;;;;;5051503;28;20025;-68
2021/03/15 01:35:17;;;;;;;49.28;26.30;;;6.30;91.40;;;;;;5050828;28;20083;-69
2021/03/15 01:37:43;;;;;;;60.45;32.83;;;6.30;91.30;;;;;;5052595;28;20035;-68
2021/03/15 01:40:09;;;;;;;73.70;40.05;;;6.30;91.30;;;;;;5052693;28;20033;-68
2021/03/15 01:42:35;;;;;;;106.15;53.72;;;6.30;91.30;;;;;;5052149;28;20108;-68
2021/03/15 01:45:01;;;;;;;95.30;50.33;;;6.30;91.30;;;;;;5050747;28;20121;-69
2021/03/15 01:47:26;;;;;;;98.65;52.90;;;6.20;91.20;;;;;;5051117;28;20060;-68
2021/03/15 01:49:53;;;;;;;67.88;35.15;;;6.20;91.20;;;;;;5052193;28;20499;-68
2021/03/15 01:52:20;;;;;;;57.03;29.02;;;6.20;91.10;;;;;;5050593;28;20112;-69
2021/03/15 01:54:46;;;;;;;70.57;35.30;;;6.20;91.20;;;;;;5044513;28;20029;-68
2021/03/15 01:57:12;;;;;;;56.70;29.42;;;6.20;91.20;;;;;;5051746;28;20060;-68
2021/03/15 01:59:38;;;;;;;60.58;29.38;;;6.20;91.20;;;;;;5050456;28;20060;-68
2021/03/15 02:02:05;;;;;;;57.20;28.55;;;6.10;91.10;;;;;;5045341;28;20463;-68
2021/03/15 02:04:31;;;;;;;55.65;28.73;;;6.10;91.10;;;;;;5050367;28;20052;-68
2021/03/15 02:06:57;;;;;;;51.95;26.33;;;6.10;91.20;;;;;;5051230;28;20459;-68
2021/03/15 02:09:23;;;;;;;52.53;26.30;;;6.10;91.30;;;;;;5051705;28;20036;-68
2021/03/15 02:12:26;;;;;;;54.15;27.83;;;6.10;91.20;;;;;;5051181;28;20021;-69
2021/03/15 02:15:22;;;;;;;56.17;30.10;;;6.00;91.20;;;;;;5052258;28;20025;-68
2021/03/15 02:18:24;;;;;;;64.25;32.67;;;6.00;91.20;;;;;;5051892;28;20032;-68
2021/03/15 02:21:18;;;;;;;59.80;29.73;;;6.00;91.20;;;;;;5054149;28;20506;-68
2021/03/15 02:23:51;;;;;;;54.85;27.65;;;6.00;91.20;;;;;;5054966;28;20063;-68
2021/03/15 02:26:46;;;;;;;48.17;25.13;;;6.00;91.30;;;;;;5056042;28;20025;-68
2021/03/15 02:29:55;;;;;;;48.75;23.55;;;6.00;91.40;;;;;;5033801;28;20484;-69
2021/03/15 02:33:01;;;;;;;46.50;24.48;;;6.00;91.30;;;;;;5054816;28;20025;-68
2021/03/15 02:35:33;;;;;;;52.67;26.75;;;6.00;91.30;;;;;;5045713;28;20029;-69
2021/03/15 02:38:11;;;;;;;71.82;33.78;;;5.90;91.30;;;;;;5054365;28;20029;-68
2021/03/15 02:40:50;;;;;;;105.47;46.22;;;5.90;91.40;;;;;;5055938;28;20055;-68
2021/03/15 02:43:29;;;;;;;56.63;25.15;;;5.90;91.50;;;;;;5054268;28;20401;-68
2021/03/15 02:45:58;;;;;;;55.42;24.85;;;5.90;91.50;;;;;;5054341;28;20025;-69
2021/03/15 02:48:26;;;;;;;52.75;24.75;;;5.90;91.50;;;;;;5055457;28;20417;-68
2021/03/15 02:50:54;;;;;;;50.13;24.95;;;5.90;91.50;;;;;;5054660;28;20055;-68
2021/03/15 02:53:20;;;;;;;43.58;23.48;;;5.90;91.50;;;;;;5053834;28;20025;-68
2021/03/15 02:55:49;;;;;;;52.70;25.75;;;5.90;91.80;;;;;;5055676;28;20033;-68
2021/03/15 02:58:17;;;;;;;44.83;24.27;;;5.90;91.50;;;;;;5054015;28;20086;-68
2021/03/15 03:00:43;;;;;;;49.75;23.52;;;5.90;91.60;;;;;;5055326;28;20091;-68
2021/03/15 03:03:10;;;;;;;45.42;21.75;;;5.90;91.60;;;;;;5055559;28;20430;-68
2021/03/15 03:05:36;;;;;;;47.28;24.60;;;5.90;91.60;;;;;;5053850;28;20045;-68
2021/03/15 03:08:04;;;;;;;48.65;24.48;;;5.90;91.60;;;;;;5055328;28;20077;-68
2021/03/15 03:10:31;;;;;;;48.88;23.65;;;5.90;91.60;;;;;;5054924;28;20037;-68
2021/03/15 03:12:58;;;;;;;49.55;24.23;;;5.90;91.70;;;;;;5055164;28;20096;-69
2021/03/15 03:15:29;;;;;;;49.08;24.08;;;5.90;91.80;;;;;;5053524;28;20371;-69
2021/03/15 03:17:58;;;;;;;47.05;24.58;;;5.90;91.90;;;;;;5055695;28;20039;-68
2021/03/15 03:20:25;;;;;;;53.97;24.45;;;6.00;92.00;;;;;;5053590;28;20039;-69
2021/03/15 03:22:53;;;;;;;51.00;26.35;;;6.00;92.10;;;;;;5053590;28;20025;-68
2021/03/15 03:25:22;;;;;;;48.88;23.73;;;6.00;92.10;;;;;;5053807;28;20433;-68
2021/03/15 03:27:58;;;;;;;53.10;26.02;;;6.00;92.10;;;;;;5053157;28;20098;-68
2021/03/15 03:30:30;;;;;;;50.70;26.20;;;6.10;92.20;;;;;;5054131;28;20429;-68
2021/03/15 03:33:04;;;;;;;50.88;23.27;;;6.10;92.30;;;;;;5054842;28;20036;-68
2021/03/15 03:35:30;;;;;;;48.40;24.05;;;6.10;92.30;;;;;;5054772;28;20547;-68
2021/03/15 03:37:56;;;;;;;51.30;22.85;;;6.10;92.30;;;;;;5053096;28;20115;-69
2021/03/15 03:40:22;;;;;;;49.40;23.30;;;6.10;92.30;;;;;;5053388;28;20749;-68
2021/03/15 03:42:48;;;;;;;50.28;24.77;;;6.10;92.40;;;;;;5047456;28;20067;-69
2021/03/15 03:45:14;;;;;;;51.40;23.95;;;6.10;92.50;;;;;;5052893;28;20566;-68
2021/03/15 03:47:42;;;;;;;54.65;25.10;;;6.10;92.60;;;;;;5044661;28;20041;-68
2021/03/15 03:50:11;;;;;;;51.92;23.65;;;6.20;92.60;;;;;;5050442;28;20060;-68
2021/03/15 03:52:38;;;;;;;55.92;24.60;;;6.20;92.60;;;;;;5037576;28;20028;-69
2021/03/15 03:55:08;;;;;;;52.88;23.75;;;6.20;92.60;;;;;;5043559;28;20467;-68
2021/03/15 03:57:36;;;;;;;53.05;25.75;;;6.20;92.70;;;;;;5045013;28;20032;-68
2021/03/15 04:00:08;;;;;;;55.22;26.80;;;6.20;92.60;;;;;;5041344;28;20112;-69
2021/03/15 04:02:42;;;;;;;56.50;25.83;;;6.10;92.60;;;;;;5037178;28;20025;-68
2021/03/15 04:05:09;;;;;;;52.50;25.55;;;6.20;92.80;;;;;;5042392;28;20045;-69
2021/03/15 04:07:42;;;;;;;59.88;28.35;;;6.10;92.80;;;;;;5047806;28;20033;-68
2021/03/15 04:10:09;;;;;;;55.80;26.65;;;6.20;92.90;;;;;;5051177;28;20033;-69
2021/03/15 04:12:38;;;;;;;52.80;25.55;;;6.20;93.00;;;;;;5052660;28;20064;-68
2021/03/15 04:15:05;;;;;;;50.13;26.10;;;6.20;93.00;;;;;;5052725;28;20087;-69
2021/03/15 04:17:36;;;;;;;58.35;28.35;;;6.20;93.10;;;;;;5052170;28;20036;-69
2021/03/15 04:20:08;;;;;;;77.57;40.42;;;6.30;93.10;;;;;;5053605;28;20487;-69
2021/03/15 04:22:45;;;;;;;56.90;27.48;;;6.30;93.20;;;;;;5053759;28;20017;-69
2021/03/15 04:25:12;;;;;;;55.17;26.27;;;6.40;93.20;;;;;;5054147;28;20470;-68
2021/03/15 04:27:40;;;;;;;58.28;27.40;;;6.40;93.30;;;;;;5052234;28;20116;-68
2021/03/15 04:30:07;;;;;;;60.47;27.65;;;6.40;93.10;;;;;;5052461;28;20051;-70
2021/03/15 04:32:33;;;;;;;61.00;27.00;;;6.40;93.10;;;;;;5053305;28;20017;-68
2021/03/15 04:35:00;;;;;;;56.13;26.40;;;6.40;93.00;;;;;;5053712;28;20060;-72
2021/03/15 04:37:26;;;;;;;60.15;27.92;;;6.40;93.10;;;;;;5053423;28;20449;-69
2021/03/15 04:39:54;;;;;;;56.50;26.90;;;6.40;93.10;;;;;;5052493;28;20024;-69
2021/03/15 04:42:21;;;;;;;56.20;26.95;;;6.50;93.10;;;;;;5051564;28;20021;-69
2021/03/15 04:44:48;;;;;;;61.08;27.50;;;6.40;93.00;;;;;;5052779;28;20086;-69
2021/03/15 04:47:13;;;;;;;60.35;27.83;;;6.50;93.10;;;;;;5051840;28;20115;-69
2021/03/15 04:49:40;;;;;;;58.78;27.17;;;6.50;93.20;;;;;;5051854;28;20111;-74
2021/03/15 04:52:06;;;;;;;54.60;26.02;;;6.50;93.30;;;;;;5051445;28;20021;-70
2021/03/15 04:54:33;;;;;;;58.67;27.77;;;6.50;93.20;;;;;;5036575;28;20105;-70
2021/03/15 04:56:59;;;;;;;58.58;27.52;;;6.50;93.00;;;;;;5046977;28;20032;-72
2021/03/15 04:59:30;;;;;;;63.78;27.88;;;6.50;92.90;;;;;;5048581;28;20552;-68
2021/03/15 05:01:56;;;;;;;61.10;27.58;;;6.40;92.90;;;;;;5038164;28;20024;-70
2021/03/15 05:04:22;;;;;;;59.03;27.13;;;6.40;93.00;;;;;;5050674;28;20672;-71
2021/03/15 05:06:49;;;;;;;58.53;28.15;;;6.40;93.10;;;;;;5051448;28;20041;-70
2021/03/15 05:09:16;;;;;;;62.17;29.13;;;6.40;93.10;;;;;;5045133;28;20486;-70
2021/03/15 05:11:43;;;;;;;60.15;27.98;;;6.40;93.20;;;;;;5048435;28;20116;-71
2021/03/15 05:14:11;;;;;;;75.20;29.70;;;6.40;93.30;;;;;;5049249;28;20024;-70
2021/03/15 05:16:39;;;;;;;63.60;29.40;;;6.40;93.40;;;;;;5050427;28;20029;-70
2021/03/15 05:19:08;;;;;;;59.97;28.58;;;6.50;93.40;;;;;;5049093;28;20119;-70
2021/03/15 05:21:39;;;;;;;89.88;34.55;;;6.50;93.40;;;;;;5049566;28;20029;-70
2021/03/15 05:24:06;;;;;;;67.53;31.15;;;6.50;93.50;;;;;;5035584;28;20464;-70
2021/03/15 05:26:35;;;;;;;99.40;37.45;;;6.50;93.50;;;;;;5043761;28;20033;-69
2021/03/15 05:29:02;;;;;;;95.43;38.05;;;6.60;93.50;;;;;;5037436;28;20037;-70
2021/03/15 05:31:30;;;;;;;107.82;40.95;;;6.60;93.60;;;;;;5045282;28;20033;-70
2021/03/15 05:33:57;;;;;;;79.65;38.20;;;6.60;93.50;;;;;;5034727;28;20030;-69
2021/03/15 05:36:24;;;;;;;80.85;37.20;;;6.60;93.40;;;;;;5033228;28;20447;-70
2021/03/15 05:38:50;;;;;;;71.88;35.88;;;6.70;93.40;;;;;;5033502;28;20113;-69
2021/03/15 05:41:18;;;;;;;149.43;52.85;;;6.70;93.30;;;;;;5038748;28;20036;-68
2021/03/15 05:43:50;;;;;;;81.55;39.65;;;6.70;93.10;;;;;;5040242;28;20021;-72
2021/03/15 05:46:24;;;;;;;69.93;34.90;;;6.70;93.20;;;;;;5048526;28;20033;-71
2021/03/15 05:49:11;;;;;;;79.00;36.28;;;6.70;93.10;;;;;;5037781;28;20087;-71
2021/03/15 05:52:08;;;;;;;69.70;32.97;;;6.70;93.00;;;;;;5040652;28;20036;-77
2021/03/15 05:54:36;;;;;;;81.13;38.38;;;6.80;93.10;;;;;;5040424;28;20056;-69
2021/03/15 05:57:46;;;;;;;91.78;39.13;;;6.80;93.20;;;;;;5045459;28;20027;-70
2021/03/15 06:00:22;;;;;;;69.90;31.52;;;6.80;93.20;;;;;;5037023;28;20426;-71
2021/03/15 06:03:09;;;;;;;60.78;29.50;;;6.80;93.30;;;;;;5035272;28;20053;-70
2021/03/15 06:05:36;;;;;;;68.85;34.80;;;6.90;93.00;;;;;;5039955;28;20053;-71
2021/03/15 06:08:19;;;;;;;63.78;31.77;;;6.90;93.00;;;;;;5035156;28;20091;-74
2021/03/15 06:10:57;;;;;;;62.28;30.02;;;6.90;92.90;;;;;;5038087;28;20082;-72
2021/03/15 06:13:24;;;;;;;67.07;30.02;;;6.90;92.90;;;;;;5044384;28;20032;-70
2021/03/15 06:15:51;;;;;;;53.88;25.48;;;6.80;92.80;;;;;;5033927;28;20029;-69
2021/03/15 06:18:17;;;;;;;54.25;27.02;;;6.80;93.00;;;;;;5032848;28;20052;-74
2021/03/15 06:20:50;;;;;;;60.47;27.85;;;6.80;93.10;;;;;;5035288;28;20463;-73
2021/03/15 06:23:16;;;;;;;60.13;26.83;;;6.90;93.30;;;;;;5036666;28;20036;-72
2021/03/15 06:25:47;;;;;;;56.15;26.98;;;6.90;93.20;;;;;;5038619;28;20095;-71
2021/03/15 06:28:14;;;;;;;59.80;26.98;;;6.90;93.30;;;;;;5037812;28;20049;-73
2021/03/15 06:30:41;;;;;;;69.35;31.42;;;7.00;93.10;;;;;;5038004;28;20029;-73
2021/03/15 06:33:07;;;;;;;71.20;35.97;;;7.00;92.90;;;;;;5034755;28;20025;-71
2021/03/15 06:35:37;;;;;;;69.75;33.10;;;6.90;93.20;;;;;;5042559;28;20083;-71
2021/03/15 06:38:04;;;;;;;73.82;37.25;;;7.00;93.30;;;;;;5038056;28;20438;-73
2021/03/15 06:40:32;;;;;;;59.13;28.45;;;7.00;93.10;;;;;;5034845;28;20022;-75
2021/03/15 06:42:58;;;;;;;68.28;31.55;;;7.00;93.10;;;;;;5037899;28;20137;-70
2021/03/15 06:45:24;;;;;;;51.00;25.42;;;7.10;93.10;;;;;;5038822;28;20071;-71
2021/03/15 06:47:50;;;;;;;72.28;32.83;;;7.10;93.00;;;;;;5041407;28;20468;-68
2021/03/15 06:50:18;;;;;;;74.82;33.85;;;7.10;93.10;;;;;;5048843;28;20037;-72
2021/03/15 06:52:53;;;;;;;58.88;28.58;;;7.10;93.20;;;;;;5047555;28;20025;-72
2021/03/15 06:55:20;;;;;;;61.60;30.38;;;7.20;93.10;;;;;;5046994;28;20046;-70
2021/03/15 06:57:46;;;;;;;59.80;28.92;;;7.20;93.10;;;;;;5037983;28;20033;-73
2021/03/15 07:00:12;;;;;;;65.38;31.75;;;7.20;93.00;;;;;;5043779;28;20075;-70
2021/03/15 07:02:38;;;;;;;71.63;31.35;;;7.20;93.10;;;;;;5043030;28;20036;-69
2021/03/15 07:05:12;;;;;;;56.00;26.83;;;7.20;93.00;;;;;;5046647;28;20025;-70
2021/03/15 07:07:47;;;;;;;66.25;29.30;;;7.20;93.20;;;;;;5051269;28;20033;-70
2021/03/15 07:10:21;;;;;;;67.43;29.73;;;7.20;93.00;;;;;;5052181;28;20471;-70
2021/03/15 07:12:47;;;;;;;58.30;28.45;;;7.20;93.00;;;;;;5050634;28;20303;-69
2021/03/15 07:15:14;;;;;;;71.78;32.20;;;7.10;93.00;;;;;;5050583;28;20029;-70
2021/03/15 07:17:40;;;;;;;58.15;25.83;;;7.10;93.10;;;;;;5052047;28;20387;-67
2021/03/15 07:20:07;;;;;;;60.00;28.50;;;7.20;93.30;;;;;;5051823;28;20029;-68
2021/03/15 07:22:33;;;;;;;62.20;29.95;;;7.20;93.30;;;;;;5052911;28;20024;-68
2021/03/15 07:25:11;;;;;;;55.65;26.02;;;7.20;93.40;;;;;;5052706;28;20036;-68
2021/03/15 07:27:40;;;;;;;65.13;30.30;;;7.20;93.30;;;;;;5053608;28;20473;-68
2021/03/15 07:30:27;;;;;;;62.55;27.90;;;7.30;93.30;;;;;;5055245;28;20067;-68
2021/03/15 07:32:58;;;;;;;58.60;26.80;;;7.30;93.30;;;;;;5053605;28;20054;-68
2021/03/15 07:35:30;;;;;;;58.33;27.00;;;7.30;93.20;;;;;;5055154;28;20029;-68
2021/03/15 07:37:56;;;;;;;59.92;26.60;;;7.30;93.20;;;;;;5053482;28;20025;-67
2021/03/15 07:40:33;;;;;;;149.13;62.83;;;7.30;93.40;;;;;;5053778;28;20032;-67
2021/03/15 07:43:05;;;;;;;55.88;27.10;;;7.40;93.70;;;;;;5054711;28;20426;-69
2021/03/15 07:45:38;;;;;;;98.82;40.10;;;7.50;93.90;;;;;;5053744;28;20025;-68
2021/03/15 07:48:16;;;;;;;51.53;23.60;;;7.60;93.80;;;;;;5054665;28;20028;-68
2021/03/15 07:50:53;;;;;;;56.38;26.00;;;7.60;93.50;;;;;;5054117;28;20128;-68
2021/03/15 07:53:47;;;;;;;65.95;31.00;;;7.70;93.40;;;;;;5054486;28;20029;-68
2021/03/15 07:56:20;;;;;;;99.60;48.72;;;7.70;93.20;;;;;;5054424;28;20025;-68
2021/03/15 07:58:46;;;;;;;83.38;42.60;;;7.70;93.20;;;;;;5052930;28;20083;-68
2021/03/15 08:01:12;;;;;;;86.70;44.83;;;7.70;92.90;;;;;;5053738;28;20035;-69
2021/03/15 08:03:41;;;;;;;66.28;32.67;;;7.80;92.70;;;;;;5054745;28;20111;-68
2021/03/15 08:06:08;;;;;;;64.20;32.22;;;7.70;92.30;;;;;;5052966;28;20494;-68
2021/03/15 08:08:34;;;;;;;66.97;30.13;;;7.60;91.90;;;;;;5052264;28;20033;-68
2021/03/15 08:11:02;;;;;;;60.88;30.83;;;7.60;91.80;;;;;;5052768;28;20029;-68
2021/03/15 08:13:34;;;;;;;61.97;30.10;;;7.50;91.90;;;;;;5053031;28;20036;-70
2021/03/15 08:16:04;;;;;;;67.68;31.70;;;7.40;92.00;;;;;;5053289;28;20025;-68
2021/03/15 08:18:31;;;;;;;59.28;30.85;;;7.40;92.20;;;;;;5053283;28;20037;-68
2021/03/15 08:21:24;;;;;;;59.58;31.63;;;7.50;92.10;;;;;;5052842;28;20021;-68
2021/03/15 08:23:51;;;;;;;71.03;34.92;;;7.40;91.80;;;;;;5052348;28;20025;-68
2021/03/15 08:26:17;;;;;;;75.20;38.97;;;7.40;91.90;;;;;;5052904;28;20420;-68
2021/03/15 08:28:44;;;;;;;104.32;52.50;;;7.40;91.80;;;;;;5052944;28;20041;-67
2021/03/15 08:31:41;;;;;;;125.80;61.10;;;7.40;91.70;;;;;;5038218;28;20029;-68
2021/03/15 08:34:10;;;;;;;136.25;69.85;;;7.30;91.50;;;;;;5052350;28;20025;-68
2021/03/15 08:36:46;;;;;;;151.43;75.18;;;7.30;91.40;;;;;;5052965;28;20052;-67
2021/03/15 08:39:27;;;;;;;203.80;89.20;;;7.20;91.50;;;;;;5052150;28;20069;-67
2021/03/15 08:42:08;;;;;;;215.07;91.07;;;7.20;91.50;;;;;;5052422;28;20041;-68
2021/03/15 08:44:38;;;;;;;292.80;112.22;;;7.20;91.40;;;;;;5052175;28;20017;-69
2021/03/15 08:47:04;;;;;;;316.38;119.43;;;7.20;91.50;;;;;;5052408;28;20403;-68
2021/03/15 08:49:31;;;;;;;359.80;138.13;;;7.20;91.60;;;;;;5053370;28;20044;-68
2021/03/15 08:51:57;;;;;;;209.75;92.88;;;7.20;91.60;;;;;;5052144;28;20017;-68
2021/03/15 08:54:45;;;;;;;110.45;55.38;;;7.20;91.90;;;;;;5053570;28;20025;-70
2021/03/15 08:57:31;;;;;;;91.70;48.22;;;7.30;92.10;;;;;;5052049;28;20025;-68
2021/03/15 08:59:57;;;;;;;68.78;39.17;;;7.40;92.00;;;;;;5051912;28;20032;-68
2021/03/15 09:02:39;;;;;;;71.40;36.70;;;7.50;92.10;;;;;;5052000;28;20029;-68
2021/03/15 09:05:28;;;;;;;64.40;34.53;;;7.50;92.00;;;;;;5051334;28;20060;-69
2021/03/15 09:07:56;;;;;;;65.05;32.10;;;7.50;91.40;;;;;;5052103;28;20115;-68
2021/03/15 09:10:24;;;;;;;61.30;33.03;;;7.50;91.40;;;;;;5051821;28;20025;-68
2021/03/15 09:13:12;;;;;;;63.97;30.80;;;7.50;91.40;;;;;;5051897;28;20025;-68
2021/03/15 09:15:42;;;;;;;66.18;32.70;;;7.60;91.40;;;;;;5051558;28;20071;-69
2021/03/15 09:18:41;;;;;;;66.03;35.78;;;7.60;91.30;;;;;;5051742;28;20028;-68
2021/03/15 09:21:28;;;;;;;72.80;37.17;;;7.70;91.50;;;;;;5050927;28;20116;-69
2021/03/15 09:23:56;;;;;;;75.00;35.67;;;7.70;91.40;;;;;;5051493;28;20025;-68
2021/03/15 09:26:24;;;;;;;73.95;35.33;;;7.70;91.20;;;;;;5052885;28;20029;-68
2021/03/15 09:28:54;;;;;;;62.20;34.03;;;7.60;91.00;;;;;;5051467;28;20029;-68
2021/03/15 09:31:20;;;;;;;70.65;36.13;;;7.60;91.00;;;;;;5051355;28;20064;-68
2021/03/15 09:33:46;;;;;;;65.65;34.22;;;7.60;90.80;;;;;;5052953;28;20055;-68
2021/03/15 09:36:12;;;;;;;72.00;32.38;;;7.60;90.80;;;;;;5052614;28;20053;-68
2021/03/15 09:38:38;;;;;;;62.42;32.60;;;7.60;91.00;;;;;;5052671;28;20438;-68
2021/03/15 09:41:08;;;;;;;63.03;32.13;;;7.60;91.00;;;;;;5051308;28;20467;-68
2021/03/15 09:43:34;;;;;;;59.58;28.85;;;7.70;91.20;;;;;;5052771;28;20021;-67
2021/03/15 09:46:04;;;;;;;58.20;29.88;;;7.70;91.20;;;;;;5051480;28;20471;-67
2021/03/15 09:48:32;;;;;;;59.58;30.80;;;7.80;91.20;;;;;;5051290;28;20025;-69
2021/03/15 09:50:59;;;;;;;57.97;28.85;;;7.80;91.30;;;;;;5051134;28;20390;-67
2021/03/15 09:53:26;;;;;;;66.22;30.77;;;7.90;91.30;;;;;;5049229;28;20426;-69
2021/03/15 09:56:06;;;;;;;68.78;37.22;;;7.90;91.20;;;;;;5050972;28;20389;-69
2021/03/15 09:58:32;;;;;;;77.03;38.35;;;8.00;91.00;;;;;;5051994;28;20056;-69
2021/03/15 10:00:57;;;;;;;81.25;42.47;;;8.00;91.00;;;;;;5050965;28;20041;-70
2021/03/15 10:03:25;;;;;;;91.50;45.08;;;8.00;90.80;;;;;;5051802;28;20028;-70
2021/03/15 10:05:57;;;;;;;88.95;44.88;;;8.00;90.70;;;;;;5052212;28;20055;-67
2021/03/15 10:08:23;;;;;;;87.68;44.50;;;8.00;90.60;;;;;;5051217;28;20025;-68
2021/03/15 10:10:50;;;;;;;86.32;45.42;;;8.10;90.50;;;;;;5051864;28;20032;-69
2021/03/15 10:13:19;;;;;;;84.72;44.20;;;8.00;90.20;;;;;;5051956;28;20431;-69
2021/03/15 10:15:47;;;;;;;81.95;44.50;;;8.00;90.10;;;;;;5046839;28;20033;-68
2021/03/15 10:18:20;;;;;;;78.03;38.55;;;8.00;89.90;;;;;;5041278;28;20033;-68
2021/03/15 10:20:50;;;;;;;74.68;35.50;;;7.90;89.80;;;;;;5052426;28;20537;-68
2021/03/15 10:23:21;;;;;;;68.63;34.72;;;8.00;89.80;;;;;;5050870;28;20029;-68
2021/03/15 10:26:02;;;;;;;68.80;32.83;;;8.00;89.80;;;;;;5051049;28;20037;-68
2021/03/15 10:28:30;;;;;;;61.45;32.05;;;7.90;89.40;;;;;;5051775;28;20048;-70
2021/03/15 10:30:56;;;;;;;73.45;31.77;;;8.00;89.60;;;;;;5052075;28;20052;-68
2021/03/15 10:33:22;;;;;;;64.20;31.08;;;8.00;89.50;;;;;;5051945;28;20029;-70
2021/03/15 10:35:50;;;;;;;61.53;29.13;;;8.00;89.10;;;;;;5050846;28;20118;-69
2021/03/15 10:38:18;;;;;;;76.53;30.90;;;8.10;88.70;;;;;;5051177;28;20055;-69
2021/03/15 10:40:45;;;;;;;56.33;27.42;;;8.10;88.70;;;;;;5051731;28;20060;-69
2021/03/15 10:43:25;;;;;;;59.55;29.02;;;8.10;88.60;;;;;;5054504;28;20489;-69
2021/03/15 10:45:51;;;;;;;64.50;29.90;;;8.20;88.60;;;;;;5054855;28;20124;-68
2021/03/15 10:48:17;;;;;;;71.82;33.30;;;8.30;89.40;;;;;;5054449;28;20384;-69
2021/03/15 10:50:47;;;;;;;60.53;30.48;;;8.50;90.00;;;;;;5056139;28;20033;-69
2021/03/15 10:53:18;;;;;;;65.97;30.80;;;8.70;90.00;;;;;;5055502;28;20021;-68
2021/03/15 10:55:45;;;;;;;60.00;27.55;;;9.00;89.70;;;;;;5055624;28;20029;-69
2021/03/15 10:58:14;;;;;;;56.03;28.10;;;9.10;88.80;;;;;;5054248;28;20486;-68
2021/03/15 11:00:40;;;;;;;52.85;26.63;;;9.20;88.20;;;;;;5054486;28;20033;-69
2021/03/15 11:03:08;;;;;;;57.92;30.50;;;9.40;87.50;;;;;;5053984;28;20391;-69
2021/03/15 11:05:34;;;;;;;54.65;28.83;;;9.50;86.20;;;;;;5054157;28;20076;-69
2021/03/15 11:08:01;;;;;;;69.45;37.08;;;9.50;85.30;;;;;;5053861;28;20025;-69
2021/03/15 11:10:33;;;;;;;52.80;28.45;;;9.50;84.80;;;;;;5055474;28;20037;-68
2021/03/15 11:13:00;;;;;;;50.00;26.63;;;9.50;84.60;;;;;;5053832;28;20036;-70
2021/03/15 11:15:38;;;;;;;47.85;24.75;;;9.40;83.90;;;;;;5055539;28;20025;-69
2021/03/15 11:18:20;;;;;;;59.92;25.77;;;9.20;83.80;;;;;;5054403;28;20025;-69
2021/03/15 11:20:53;;;;;;;48.28;27.38;;;9.10;83.60;;;;;;5055133;28;20072;-69
2021/03/15 11:23:37;;;;;;;60.30;32.95;;;8.90;83.20;;;;;;5053951;28;20099;-69
2021/03/15 11:26:16;;;;;;;64.00;35.17;;;8.70;83.10;;;;;;5054850;28;20063;-69
2021/03/15 11:28:44;;;;;;;64.90;35.42;;;8.50;83.20;;;;;;5053774;28;20040;-68
2021/03/15 11:31:18;;;;;;;58.03;32.65;;;8.40;83.60;;;;;;5054627;28;20053;-68
2021/03/15 11:33:56;;;;;;;67.25;29.77;;;8.20;83.80;;;;;;5053836;28;20029;-68
2021/03/15 11:36:25;;;;;;;66.13;30.88;;;8.00;83.90;;;;;;5053715;28;20538;-68
2021/03/15 11:39:05;;;;;;;71.22;33.58;;;7.90;84.10;;;;;;5053500;28;20083;-68
2021/03/15 11:41:37;;;;;;;74.72;34.85;;;7.70;84.70;;;;;;5053855;28;20025;-68
2021/03/15 11:44:03;;;;;;;95.25;42.40;;;7.70;85.60;;;;;;5054199;28;20029;-68
2021/03/15 11:46:29;;;;;;;98.88;42.30;;;7.70;87.10;;;;;;5053335;28;20090;-68
2021/03/15 11:48:54;;;;;;;98.75;43.47;;;7.80;88.40;;;;;;5054692;28;20068;-68
2021/03/15 11:51:20;;;;;;;93.72;47.10;;;7.90;89.20;;;;;;5052281;28;20036;-68
2021/03/15 11:53:46;;;;;;;64.75;34.08;;;8.10;90.00;;;;;;5053336;28;20383;-68
2021/03/15 11:56:12;;;;;;;59.20;30.77;;;8.40;90.30;;;;;;5054488;28;20040;-68
2021/03/15 11:58:38;;;;;;;48.97;25.83;;;8.70;89.50;;;;;;5053061;28;20032;-68
2021/03/15 12:01:05;;;;;;;48.55;24.55;;;8.70;87.70;;;;;;5054664;28;20070;-68
2021/03/15 12:03:31;;;;;;;45.28;23.17;;;8.60;86.10;;;;;;5052734;28;20288;-68
2021/03/15 12:05:57;;;;;;;47.92;27.65;;;8.50;85.50;;;;;;5054164;28;20450;-68
2021/03/15 12:08:23;;;;;;;52.50;29.92;;;8.30;85.70;;;;;;5054001;28;20037;-68
2021/03/15 12:10:49;;;;;;;56.30;28.75;;;8.20;86.50;;;;;;5053998;28;20021;-68
2021/03/15 12:13:15;;;;;;;55.08;30.40;;;8.20;86.90;;;;;;5054057;28;20032;-68
2021/03/15 12:15:41;;;;;;;64.57;32.92;;;8.30;88.40;;;;;;5052904;28;20021;-68
2021/03/15 12:18:07;;;;;;;62.60;32.58;;;8.60;88.60;;;;;;5054287;28;20021;-68
2021/03/15 12:20:34;;;;;;;54.83;29.17;;;8.70;86.60;;;;;;5052646;28;20025;-68
2021/03/15 12:23:00;;;;;;;55.75;27.88;;;8.60;86.50;;;;;;5054072;28;20494;-69
2021/03/15 12:25:26;;;;;;;49.53;23.95;;;8.60;86.60;;;;;;5054203;28;20029;-69
2021/03/15 12:27:55;;;;;;;53.15;30.17;;;8.50;86.20;;;;;;5052671;28;20044;-69
2021/03/15 12:30:21;;;;;;;61.30;34.28;;;8.30;86.20;;;;;;5054327;28;20033;-69
2021/03/15 12:32:47;;;;;;;61.83;33.78;;;8.30;86.60;;;;;;5053433;28;20051;-69
2021/03/15 12:35:13;;;;;;;59.03;33.40;;;8.20;86.80;;;;;;5052506;28;20108;-68
2021/03/15 12:37:39;;;;;;;59.53;33.90;;;8.20;87.80;;;;;;5052384;28;20368;-68
2021/03/15 12:40:06;;;;;;;57.97;29.58;;;8.30;88.30;;;;;;5053946;28;20100;-68
2021/03/15 12:42:32;;;;;;;51.83;29.58;;;8.30;88.30;;;;;;5053457;28;20068;-69
2021/03/15 12:44:58;;;;;;;51.35;29.00;;;8.30;88.20;;;;;;5052297;28;20025;-70
2021/03/15 12:47:24;;;;;;;54.80;32.20;;;8.30;88.20;;;;;;5052336;28;20104;-68
2021/03/15 12:49:50;;;;;;;53.50;30.13;;;8.30;88.00;;;;;;5051861;28;20021;-68